• Join FlightAware (Why Join?)
  • Login
  • US Flag 
08:00AM EST


 

Airport Tracker/Info


-or-


 

Live Flight TrackerFlight Track Log ✈ UAL33 ✈ 26-May-2013 ✈ KIAH - KORD

Flight Track Log - Related Links

Times and Time Zones

All times are in EDT time to prevent confusion due to time zone crossing. See the UAL33 flight status page for this flight to view local times or setup timezone preferences in your user account.

Time Position Orientation Groundspeed Altitude Reporting Facility
EDT Latitude Longitude Course Direction KTS MPH feet Rate Location/Type
05:35PM 29.9598 -95.3397 217° Southwest 163 188 800  Level FlightAware ADS-B
05:35PM 29.9567 -95.3358 133° Southeast 164 189 1,100 3,000 Climbing FlightAware ADS-B
05:35PM 29.9550 -95.3324 120° Southeast 164 189 1,300 2,520 Climbing FlightAware ADS-B
05:35PM 29.9544 -95.3298 105° East 165 190 1,400 2,520 Climbing FlightAware ADS-B
05:35PM 29.9538 -95.3263 101° East 168 193 1,600 2,400 Climbing FlightAware ADS-B
05:35PM 29.9535 -95.3212 94° East 170 196 1,800 2,460 Climbing FlightAware ADS-B
05:36PM 29.9535 -95.3051 90° East 177 204 2,600 2,400 Climbing FlightAware ADS-B
05:36PM 29.9538 -95.2975 87° East 191 220 2,800 1,620 Climbing FlightAware ADS-B
05:36PM 29.9543 -95.2932 82° East 201 231 2,900 1,320 Climbing FlightAware ADS-B
05:36PM 29.9558 -95.2878 72° East 211 243 3,000 1,320 Climbing FlightAware ADS-B
05:36PM 29.9575 -95.2838 64° Northeast 220 253 3,100 840 Climbing FlightAware ADS-B
05:36PM 29.9594 -95.2804 57° Northeast 228 262 3,100 840 Level FlightAware ADS-B
05:36PM 29.9618 -95.2774 47° Northeast 235 270 3,200 1,800 Climbing FlightAware ADS-B
05:36PM 29.9669 -95.2724 40° Northeast 247 284 3,400 1,680 Climbing FlightAware ADS-B
05:36PM 29.9759 -95.2674 21° North 264 304 3,600 1,200 Climbing FlightAware ADS-B
05:36PM 29.9840 -95.2650 12° North 274 315 3,700 840 Climbing FlightAware ADS-B
05:37PM 29.9937 -95.2637 North 277 319 3,800 1,200 Climbing FlightAware ADS-B
05:37PM 30.0550 -95.2604 358° North 284 327 4,800 1,740 Climbing FlightAware ADS-B
05:38PM 30.0693 -95.2644 341° North 284 327 5,500 3,900 Climbing FlightAware ADS-B
05:38PM 30.0889 -95.2779 325° Northwest 284 327 6,700 3,780 Climbing FlightAware ADS-B
05:38PM 30.1024 -95.2892 324° Northwest 288 331 7,400 2,640 Climbing FlightAware ADS-B
05:40PM 30.2204 -95.3882 324° Northwest 359 413 11,700 2,580 Climbing FlightAware ADS-B
05:40PM 30.2625 -95.4232 324° Northwest 366 421 13,200 2,460 Climbing FlightAware ADS-B
05:41PM 30.3052 -95.4588 324° Northwest 372 428 14,300 2,520 Climbing FlightAware ADS-B
05:41PM 30.3508 -95.4970 324° Northwest 373 429 15,900 1,620 Climbing FlightAware ADS-B
05:42PM 30.4373 -95.5695 324° Northwest 389 448 16,900 960 Climbing FlightAware ADS-B
05:43PM 30.5300 -95.6458 328° Northwest 390 449 17,900 1,260 Climbing FlightAware ADS-B
05:44PM 30.5603 -95.6652 331° Northwest 398 458 18,700 2,760 Climbing FlightAware ADS-B
05:44PM 30.6112 -95.6923 335° Northwest 404 465 20,200 2,700 Climbing FlightAware ADS-B
05:45PM 30.6633 -95.7203 335° Northwest 411 473 21,500 2,400 Climbing FlightAware ADS-B
05:45PM 30.7167 -95.7489 335° Northwest 422 486 22,700 2,160 Climbing FlightAware ADS-B
05:46PM 30.8269 -95.8083 335° Northwest 443 510 24,800 2,340 Climbing FlightAware ADS-B
05:47PM 30.9418 -95.8696 335° Northwest 444 511 27,500 2,280 Climbing FlightAware ADS-B
05:49PM 31.0873 -95.9479 335° Northwest 457 526 30,200 1,980 Climbing FlightAware ADS-B
05:49PM 31.1616 -95.9765 345° North 466 536 31,300 1,560 Climbing FlightAware ADS-B
05:51PM 31.3635 -96.0239 349° North 485 558 33,600 1,440 Climbing FlightAware ADS-B
05:51PM 31.4330 -96.0400 349° North 489 563 34,400 1,560 Climbing FlightAware
05:51PM 31.4572 -96.0457 349° North 490 564 34,700 1,440 Climbing FlightAware ADS-B
05:53PM 31.6250 -96.0850 349° North 493 567 36,500 1,560 Climbing FlightAware
05:53PM 31.7364 -96.1116 349° North 486 559 38,000 1,620 Climbing FlightAware ADS-B
05:55PM 31.8860 -96.1470 349° North 474 545 39,800 1,440 Climbing FlightAware
05:55PM 31.9327 -96.1577 349° North 474 545 40,200 1,200 Climbing FlightAware ADS-B
05:56PM 32.0025 -96.1743 349° North 470 541 40,900 300 Climbing FlightAware ADS-B
05:58PM 32.2532 -96.2189 356° North 467 537 41,000  Climbing FlightAware ADS-B
05:58PM 32.3206 -96.2196 359° North 470 541 41,000  Level FlightAware ADS-B
05:59PM 32.3947 -96.2205 359° North 470 541 41,000  Level FlightAware ADS-B
05:59PM 32.4795 -96.2216 359° North 472 543 41,000  Level FlightAware ADS-B
06:00PM 32.5990 -96.2229 359° North 470 541 41,000  Level FlightAware ADS-B
06:01PM 32.6930 -96.2240 359° North 469 540 41,000  Level FlightAware
06:02PM 32.8660 -96.2260 359° North 470 541 41,000  Level FlightAware
06:03PM 32.9630 -96.2270 360° North 470 541 41,000  Level FlightAware
06:04PM 33.0490 -96.2280 359° North 469 540 41,000  Level FlightAware
06:04PM 33.1450 -96.2290 360° North 469 540 41,000  Level FlightAware
06:05PM 33.1950 -96.2300 359° North 469 540 41,000  Level FlightAware
06:05PM 33.2920 -96.2310 360° North 473 544 41,000  Level FlightAware
06:06PM 33.3900 -96.2320 360° North 477 549 41,000  Level FlightAware
06:07PM 33.4780 -96.2330 359° North 479 551 41,000  Level FlightAware
06:07PM 33.5440 -96.2280 North 483 556 41,000  Level FlightAware
06:08PM 33.6300 -96.1970 17° North 496 571 41,000  Level FlightAware
06:09PM 33.7190 -96.1320 31° Northeast 501 577 41,000  Level FlightAware
06:09PM 33.7990 -96.0710 32° Northeast 501 577 41,000  Level FlightAware
06:10PM 33.8810 -96.0080 33° Northeast 501 577 41,000  Level FlightAware
06:11PM 33.9610 -95.9480 32° Northeast 499 574 41,000  Level FlightAware
06:12PM 34.0480 -95.8810 33° Northeast 498 573 41,000  Level FlightAware
06:12PM 34.1240 -95.8220 33° Northeast 497 572 41,000  Level FlightAware
06:13PM 34.2090 -95.7570 32° Northeast 494 568 41,000  Level FlightAware
06:14PM 34.2860 -95.6980 32° Northeast 495 570 41,000  Level FlightAware
06:14PM 34.3750 -95.6290 33° Northeast 496 571 41,000  Level FlightAware
06:15PM 34.4480 -95.5730 32° Northeast 497 572 41,000  Level FlightAware
06:16PM 34.5260 -95.5130 32° Northeast 495 570 41,000  Level FlightAware
06:16PM 34.6070 -95.4490 33° Northeast 494 568 41,000  Level FlightAware
06:17PM 34.6990 -95.3780 32° Northeast 495 570 41,000  Level FlightAware
06:18PM 34.7780 -95.3200 31° Northeast 494 568 41,000  Level FlightAware
06:19PM 34.8650 -95.2560 31° Northeast 494 568 41,000  Level FlightAware
06:19PM 34.9310 -95.2070 31° Northeast 495 570 41,000  Level FlightAware
06:20PM 35.0490 -95.1190 31° Northeast 495 570 41,000  Level FlightAware
06:21PM 35.1550 -95.0400 31° Northeast 493 567 41,000  Level FlightAware
06:22PM 35.2340 -94.9800 32° Northeast 492 566 41,000  Level FlightAware
06:22PM 35.3110 -94.9220 32° Northeast 491 565 41,000  Level FlightAware
06:23PM 35.4070 -94.8500 31° Northeast 489 563 41,000  Level FlightAware
06:24PM 35.4840 -94.7920 32° Northeast 489 563 41,000  Level FlightAware
06:25PM 35.5660 -94.7300 32° Northeast 488 562 41,000  Level FlightAware
06:25PM 35.6490 -94.6670 32° Northeast 488 562 41,000  Level FlightAware
06:26PM 35.7270 -94.6070 32° Northeast 487 560 41,000  Level FlightAware
06:27PM 35.8070 -94.5460 32° Northeast 488 562 41,000  Level FlightAware
06:27PM 35.8860 -94.4850 32° Northeast 489 563 41,000  Level FlightAware
06:28PM 35.9730 -94.4190 32° Northeast 490 564 41,000  Level FlightAware
06:29PM 36.0480 -94.3610 32° Northeast 491 565 41,000  Level FlightAware
06:30PM 36.1340 -94.2950 32° Northeast 491 565 41,000  Level FlightAware
06:30PM 36.2110 -94.2360 32° Northeast 492 566 41,000  Level FlightAware
06:31PM 36.2930 -94.1720 32° Northeast 491 565 41,000  Level FlightAware
06:32PM 36.3780 -94.1060 32° Northeast 493 567 41,000  Level FlightAware
06:32PM 36.4560 -94.0450 32° Northeast 490 564 41,000  Level FlightAware
06:33PM 36.5320 -93.9860 32° Northeast 493 567 41,000  Level FlightAware
06:34PM 36.6190 -93.9180 32° Northeast 494 568 41,000  Level FlightAware
06:34PM 36.6970 -93.8570 32° Northeast 494 568 41,000  Level FlightAware
06:35PM 36.7820 -93.7900 32° Northeast 497 572 41,000  Level FlightAware
06:36PM 36.8600 -93.7290 32° Northeast 496 571 41,000  Level FlightAware
06:37PM 36.9440 -93.6620 33° Northeast 484 557 41,000  Level FlightAware
06:37PM 37.0190 -93.6030 32° Northeast 476 548 41,000  Level FlightAware
06:38PM 37.0980 -93.5400 32° Northeast 472 543 41,000  Level FlightAware
06:39PM 37.1780 -93.4760 33° Northeast 472 543 41,000  Level FlightAware
06:39PM 37.2510 -93.4180 32° Northeast 471 542 41,000  Level FlightAware
06:40PM 37.3320 -93.3530 33° Northeast 469 540 41,000  Level FlightAware
06:41PM 37.4070 -93.2870 35° Northeast 468 539 41,000  Level FlightAware
06:41PM 37.4730 -93.2260 36° Northeast 468 539 41,000  Level FlightAware
06:42PM 37.5460 -93.1590 36° Northeast 469 540 41,000  Level FlightAware
06:43PM 37.6240 -93.0870 36° Northeast 469 540 41,000  Level FlightAware
06:44PM 37.7010 -93.0320 29° Northeast 468 539 41,000  Level FlightAware
06:44PM 37.7970 -93.0100 10° North 469 540 41,000  Level FlightAware
06:45PM 37.8810 -92.9930 North 469 540 41,000  Level FlightAware
06:46PM 37.9750 -92.9750 North 471 542 41,000  Level FlightAware
06:46PM 38.0600 -92.9590 North 468 539 41,000  Level FlightAware
06:47PM 38.1560 -92.9400 North 468 539 41,000  Level FlightAware
06:48PM 38.2260 -92.9270 North 466 536 41,000  Level FlightAware
06:48PM 38.3260 -92.8960 14° North 462 532 41,000  Level FlightAware
06:49PM 38.3950 -92.8260 38° Northeast 461 531 41,000  Level FlightAware
06:50PM 38.4400 -92.7230 61° Northeast 458 527 41,000  Level FlightAware
06:51PM 38.4810 -92.6160 64° Northeast 457 526 41,000  Level FlightAware
06:51PM 38.5320 -92.4800 64° Northeast 456 525 41,000  Level FlightAware
06:52PM 38.5830 -92.3460 64° Northeast 456 525 41,000  Level FlightAware
06:53PM 38.6200 -92.2470 64° Northeast 459 528 41,000  Level FlightAware
06:54PM 38.6540 -92.1540 65° Northeast 461 531 41,000  Level FlightAware
06:55PM 38.7080 -92.0110 64° Northeast 463 533 41,000  Level FlightAware
06:55PM 38.7470 -91.9050 65° Northeast 466 536 41,000  Level FlightAware
06:56PM 38.7820 -91.8110 64° Northeast 465 535 41,000  Level FlightAware
06:57PM 38.8230 -91.6980 65° Northeast 467 537 41,000  Level FlightAware
06:57PM 38.8620 -91.6350 52° Northeast 461 531 41,000  Level FlightAware
06:58PM 38.8920 -91.6110 32° Northeast 457 526 41,000  Level FlightAware
06:58PM 38.9630 -91.5620 28° Northeast 458 527 41,000  Level FlightAware
06:59PM 39.0300 -91.5040 34° Northeast 457 526 41,000  Level FlightAware
07:00PM 39.1130 -91.4320 34° Northeast 460 529 41,000  Level FlightAware
07:00PM 39.1860 -91.3670 35° Northeast 464 534 41,000  Level FlightAware
07:01PM 39.2650 -91.2970 34° Northeast 464 534 41,000  Level FlightAware
07:02PM 39.3360 -91.2340 34° Northeast 462 532 41,000  Level FlightAware
07:02PM 39.4100 -91.1680 35° Northeast 461 531 41,000  Level FlightAware
07:03PM 39.4770 -91.1100 34° Northeast 465 535 41,000 -240 Level FlightAware
07:04PM 39.5600 -91.0370 34° Northeast 472 543 40,700 -960 Descending FlightAware
07:05PM 39.6440 -90.9630 34° Northeast 481 554 39,600 -1,440 Descending FlightAware
07:05PM 39.7180 -90.8980 34° Northeast 482 555 38,700 -720 Descending FlightAware
07:06PM 39.7760 -90.8470 34° Northeast 482 555 38,700 -1,380 Level FlightAware
07:07PM 39.8690 -90.7640 34° Northeast 474 545 36,800 -2,040 Descending FlightAware
07:07PM 39.9470 -90.6940 35° Northeast 480 552 35,700 -1,560 Descending FlightAware
07:08PM 40.0210 -90.6290 34° Northeast 482 555 34,700 -1,560 Descending FlightAware
07:09PM 40.0950 -90.5610 35° Northeast 480 552 33,600 -1,200 Descending FlightAware
07:09PM 40.1750 -90.4900 34° Northeast 477 549 33,000 -420 Descending FlightAware
07:10PM 40.2500 -90.4220 35° Northeast 470 541 33,000  Level FlightAware
07:11PM 40.3630 -90.3200 35° Northeast 480 552 33,000  Level FlightAware
07:12PM 40.4480 -90.2440 34° Northeast 477 549 33,000  Level FlightAware
07:13PM 40.5240 -90.1740 35° Northeast 472 543 33,000 -780 Level FlightAware
07:13PM 40.5950 -90.1090 35° Northeast 461 531 32,000 -1,620 Descending FlightAware
07:14PM 40.6710 -90.0400 35° Northeast 452 520 30,800 -1,800 Descending FlightAware
07:15PM 40.7400 -89.9760 35° Northeast 445 512 29,500 -1,920 Descending FlightAware
07:15PM 40.8070 -89.9150 35° Northeast 437 503 28,300 -1,860 Descending FlightAware
07:16PM 40.8820 -89.8460 35° Northeast 429 494 26,900 -1,560 Descending FlightAware
07:17PM 40.9460 -89.7860 35° Northeast 424 488 26,100 -1,080 Descending FlightAware
07:18PM 41.0170 -89.7210 35° Northeast 418 481 25,400 -960 Descending FlightAware
07:18PM 41.0820 -89.6600 35° Northeast 420 483 24,800 -1,320 Descending FlightAware
07:19PM 41.1450 -89.5980 37° Northeast 420 483 23,600 -1,920 Descending FlightAware
07:20PM 41.1920 -89.5100 55° Northeast 424 488 22,200 -1,980 Descending FlightAware
07:20PM 41.2330 -89.4070 62° Northeast 423 487 20,800 -1,980 Descending FlightAware
07:21PM 41.2700 -89.3150 62° Northeast 424 488 19,500 -1,920 Descending FlightAware
07:22PM 41.3050 -89.2280 62° Northeast 404 465 18,300 -2,040 Descending FlightAware
07:22PM 41.3470 -89.1240 62° Northeast 411 473 16,600 -2,040 Descending FlightAware
07:23PM 41.3820 -89.0360 62° Northeast 398 458 15,400 -1,860 Descending FlightAware
07:24PM 41.4170 -88.9470 62° Northeast 375 432 14,100 -1,740 Descending FlightAware
07:25PM 41.4500 -88.8660 61° Northeast 370 426 13,000 -1,680 Descending FlightAware
07:25PM 41.4840 -88.7810 62° Northeast 368 423 11,800 -1,560 Descending FlightAware
07:26PM 41.5170 -88.6970 62° Northeast 355 409 10,800 -720 Descending FlightAware
07:27PM 41.5460 -88.6210 63° Northeast 305 351 10,800 -120 Level FlightAware
07:27PM 41.5760 -88.5470 62° Northeast 316 364 10,700 -420 Descending FlightAware
07:28PM 41.6060 -88.4750 61° Northeast 310 357 10,200 -900 Descending FlightAware
07:28PM 41.6270 -88.4360 54° Northeast 303 349 9,700 -900 Descending FlightAware
07:29PM 41.6410 -88.4130 51° Northeast 304 350 9,600 -480 Descending FlightAware
07:29PM 41.6620 -88.3770 52° Northeast 312 359 9,400 -780 Descending FlightAware
07:30PM 41.6950 -88.3360 43° Northeast 291 335 8,900 -1,200 Descending FlightAware
07:30PM 41.7300 -88.3160 23° Northeast 293 337 8,200 -1,500 Descending FlightAware
07:31PM 41.7670 -88.2990 19° North 287 330 7,500 -1,320 Descending FlightAware
07:31PM 41.8010 -88.2830 19° North 283 326 7,000 -1,200 Descending FlightAware
07:32PM 41.8310 -88.2700 18° North 282 325 6,500 -1,260 Descending FlightAware
07:32PM 41.8660 -88.2560 17° North 280 322 5,900 -1,200 Descending FlightAware
07:32PM 41.9000 -88.2430 16° North 266 306 5,400 -1,320 Descending FlightAware
07:33PM 41.9320 -88.2280 19° North 243 280 4,700 -1,560 Descending FlightAware
07:33PM 41.9430 -88.2130 45° Northeast 221 254 4,300 -1,500 Descending FlightAware
07:33PM 41.9460 -88.1960 77° East 211 243 4,000 -1,320 Descending FlightAware
07:34PM 41.9520 -88.1610 77° East 218 251 3,400 -1,140 Descending FlightAware
07:34PM 41.9590 -88.1240 76° East 213 245 3,000 -660 Descending FlightAware
07:35PM 41.9680 -88.0900 70° East 197 227 2,800 -720 Descending FlightAware
07:35PM 41.9680 -88.0620 90° East 191 220 2,400 -1,020 Descending FlightAware
07:36PM 41.9690 -88.0310 88° East 167 192 1,900 -900 Descending FlightAware
07:36PM 41.9690 -88.0000 90° East 139 160 1,500 -780 Descending FlightAware
07:37PM 41.9690 -87.9790 90° East 137 158 1,200 -780 Descending FlightAware
07:37PM 41.9690 -87.9530 90° East 135 155 800 -840 Descending FlightAware
07:38PM 41.9690 -87.9290 90° East 134 154 400 -420 Descending FlightAware
07:38PM 41.9690 -87.9080 90° East 134 154 400  Level FlightAware